Date,TemperatureHighF,TemperatureAvgF,TemperatureLowF,DewpointHighF,DewpointAvgF,DewpointLowF,HumidityHigh,HumidityAvg,HumidityLow,PressureMaxIn,PressureMinIn,WindSpeedMaxMPH,WindSpeedAvgMPH,GustSpeedMaxMPH,PrecipitationSumIn
2013-1-1,76,64,54,69,62,53,98,92,73,30.11,29.93,10,1,13,0.14
2013-1-2,54,50,43,53,47,42,96,90,82,30.21,30.01,9,1,12,0.07
2013-1-3,48,41,37,42,37,30,97,85,63,30.38,30.19,6,1,9,0.41
2013-1-4,58,44,34,36,32,29,83,65,37,30.45,30.33,8,1,11,0.00
2013-1-5,51,47,41,40,37,33,77,68,60,30.38,30.25,6,1,7,0.00
2013-1-6,51,47,43,48,44,40,95,89,69,30.30,30.20,5,0,7,0.14
2013-1-7,62,49,38,42,40,37,95,74,40,30.34,30.20,8,1,11,0.01
2013-1-8,68,58,47,61,52,41,89,82,73,30.26,30.15,8,1,10,0.00
2013-1-9,62,62,62,58,58,58,87,86,86,30.20,30.18,3,0,4,0.00
2013-1-13,76,72,64,72,70,62,96,92,84,30.03,29.94,5,2,12,0.03
2013-1-14,63,55,44,62,53,43,97,95,91,30.12,30.02,6,1,9,0.03
2013-1-15,69,55,44,66,54,43,98,96,89,30.09,29.94,5,0,7,0.23
2013-1-16,58,48,42,57,47,41,98,96,94,30.06,29.94,6,1,7,0.26
2013-1-17,51,42,36,40,37,33,97,82,60,30.37,30.05,15,2,17,0.03
2013-1-18,59,44,36,41,37,34,94,77,44,30.53,30.37,9,1,12,0.00
2013-1-19,65,49,37,48,41,35,95,77,51,30.41,30.25,5,0,7,0.00
2013-1-20,68,52,39,53,46,38,98,81,45,30.29,30.14,6,0,7,0.00
2013-1-21,67,54,43,48,45,40,96,73,45,30.22,30.13,7,0,10,0.00
2013-1-22,62,48,38,40,35,29,84,64,38,30.38,30.22,6,1,9,0.00
2013-1-23,69,52,37,53,45,35,95,78,52,30.42,30.30,8,0,9,0.00
2013-1-24,75,60,47,59,53,46,98,81,51,30.35,30.22,9,1,11,0.00
2013-1-27,60,60,58,60,59,57,97,96,95,30.28,30.26,0,0,3,0.00
2013-1-28,75,65,55,67,62,55,99,91,69,30.29,30.15,6,1,10,0.01
2013-1-29,77,71,67,72,69,66,98,94,83,30.15,29.86,9,1,11,0.33
2013-1-30,74,62,44,72,58,33,97,88,61,30.12,29.69,18,3,27,0.94
2013-1-31,61,48,35,40,34,28,91,63,30,30.33,30.12,9,1,11,0.00
2013-2-1,62,48,40,41,37,31,81,66,37,30.42,30.30,9,1,10,0.00
2013-2-2,67,50,32,53,39,26,94,68,40,30.37,30.19,8,1,11,0.00
2013-2-3,69,56,44,53,43,32,98,68,26,30.27,30.14,11,1,11,0.00
2013-2-4,64,54,45,54,44,36,96,70,52,30.14,30.00,4,0,5,0.09
2013-2-5,69,60,54,64,58,54,99,95,82,30.04,29.96,6,0,7,0.77
2013-2-6,72,61,53,62,58,53,99,90,67,30.16,30.02,11,1,11,0.02
2013-2-7,76,64,55,63,60,54,99,88,61,30.03,29.80,12,2,16,2.60
2013-2-8,74,61,51,62,56,51,99,85,54,30.16,29.95,11,1,11,0.00
2013-2-9,66,56,44,55,50,42,95,80,57,30.26,30.13,8,1,10,0.00
2013-2-10,71,65,56,70,63,54,98,94,89,30.13,29.97,12,2,15,0.12
2013-2-11,71,63,57,70,62,56,99,96,86,30.13,30.00,12,2,16,0.64
2013-2-12,72,62,56,71,62,55,100,98,95,30.06,29.76,11,2,18,1.07
2013-2-13,70,67,61,68,65,58,97,94,91,29.84,29.77,10,2,13,0.00
2013-2-14,43,42,40,41,40,39,97,96,93,30.12,30.10,0,0,0,0.00
2013-2-15,68,52,37,47,42,36,99,73,34,30.19,30.05,6,1,10,0.00
2013-2-16,53,49,36,42,32,17,76,55,26,30.30,30.10,10,2,18,0.27
2013-2-17,58,42,27,35,27,22,88,59,30,30.40,30.27,6,1,8,0.00
2013-2-18,65,54,39,56,46,35,98,75,52,30.30,30.03,14,2,23,0.00
2013-2-19,68,60,46,62,47,30,98,67,27,30.21,29.97,15,2,15,0.42
2013-2-20,59,48,40,34,29,24,71,50,28,30.29,30.09,7,1,12,0.00
2013-2-21,66,57,43,65,50,33,96,75,55,30.09,29.88,10,2,15,0.00
2013-2-22,71,66,62,69,64,55,99,92,68,29.99,29.86,8,1,12,2.47
2013-2-23,62,58,55,61,57,53,99,97,92,29.97,29.76,7,1,10,1.09
2013-2-24,70,59,48,59,54,47,99,85,62,30.01,29.82,7,1,10,0.43
2013-2-25,68,62,58,67,61,57,99,97,90,29.86,29.49,12,2,18,4.52
2013-2-26,65,56,50,64,46,39,97,70,46,29.93,29.53,15,2,18,0.00
2013-2-27,50,48,47,45,45,44,91,87,83,29.94,29.92,0,0,1,0.00
2013-3-8,74,55,38,47,41,35,97,65,25,30.32,30.19,5,1,8,0.00
2013-3-9,73,60,46,59,50,44,95,73,41,30.22,30.04,7,1,12,0.00
2013-3-10,74,66,59,65,61,58,94,85,73,30.06,29.92,17,3,21,0.00
2013-3-11,67,57,45,66,54,43,98,91,75,29.99,29.84,15,1,15,0.56
2013-3-12,67,52,39,44,40,36,95,65,38,30.20,29.99,9,1,12,0.00
2013-3-13,67,54,42,41,34,23,84,53,20,30.37,30.19,5,1,14,0.00
2013-3-14,68,52,39,42,31,22,77,47,21,30.45,30.30,11,1,11,0.00
2013-3-15,75,59,44,51,45,39,97,66,31,30.32,30.15,11,1,17,0.00
2013-3-16,77,63,48,58,54,47,98,75,44,30.15,29.99,13,1,17,0.00
2013-3-17,76,64,55,65,60,54,99,89,60,30.02,29.90,9,1,10,0.00
2013-3-18,82,71,62,70,66,60,97,87,65,29.93,29.78,11,1,14,0.00
2013-3-19,79,66,57,60,52,44,91,64,35,30.05,29.88,9,2,12,0.00
2013-3-20,67,60,47,44,38,32,67,44,27,30.12,29.98,7,2,13,0.00
2013-3-21,69,54,42,44,33,26,72,48,22,30.09,29.90,7,1,10,0.00
2013-3-22,68,59,49,60,51,42,90,75,60,29.94,29.85,11,2,14,0.08
2013-3-23,74,67,61,71,63,53,99,88,72,29.89,29.59,5,1,8,0.38
2013-3-24,81,66,48,70,53,33,98,65,38,29.95,29.57,15,2,17,0.01
2013-3-25,60,48,37,35,29,21,77,51,23,30.23,29.95,8,2,14,0.00
2013-3-26,58,43,33,30,28,26,79,56,32,30.38,30.23,9,1,12,0.00
2013-3-27,65,47,30,40,32,27,92,61,27,30.45,30.29,7,1,12,0.00
2013-3-28,73,53,38,44,37,29,97,64,22,30.38,30.24,7,1,9,0.00
2013-3-29,74,65,55,56,53,48,95,67,42,30.25,30.22,6,1,10,0.00
2013-3-30,78,64,52,60,56,51,99,79,42,30.22,30.04,6,1,14,0.00
2013-3-31,81,68,60,67,62,59,99,85,53,30.08,29.89,13,1,20,0.32
2013-4-1,77,62,55,62,59,54,99,90,50,30.09,29.92,5,0,9,0.01
2013-4-2,81,66,51,58,53,47,99,69,33,30.14,30.01,8,1,10,0.00
2013-4-3,64,59,54,62,57,53,99,92,79,30.08,29.73,21,1,27,1.52
2013-4-4,73,60,55,62,56,52,98,87,67,29.97,29.87,10,1,10,0.00
2013-4-5,70,56,50,52,49,47,94,79,50,30.12,29.96,10,1,12,0.00
2013-4-6,76,60,44,55,48,40,99,72,29,30.18,30.10,8,1,8,0.00
2013-4-7,77,63,49,62,57,48,99,83,51,30.15,30.04,5,1,10,0.00
2013-4-8,82,71,60,70,66,59,99,85,62,30.08,29.99,11,1,15,0.00
2013-4-9,82,74,69,72,69,66,97,86,69,30.09,29.97,14,2,15,0.00
2013-4-10,69,68,66,66,66,65,95,93,91,30.03,29.97,4,0,6,0.00
2013-4-13,66,64,61,58,57,57,87,80,74,29.96,29.93,1,0,3,0.00
2013-4-14,67,62,57,65,60,57,99,95,81,30.00,29.72,6,1,12,1.44
2013-4-15,80,70,64,74,68,64,99,95,79,30.04,29.83,4,0,7,1.71
2013-4-16,86,75,67,74,70,66,99,87,67,30.12,30.02,6,0,13,0.00
2013-4-17,84,74,67,75,70,66,99,86,61,30.13,30.01,6,1,10,0.00
2013-4-18,80,74,66,74,71,65,99,91,79,30.01,29.86,12,1,12,0.00
2013-4-19,76,56,44,74,55,43,98,95,78,30.18,29.81,9,1,13,1.16
2013-4-20,70,54,39,46,43,37,98,69,38,30.28,30.13,10,1,13,0.01
2013-4-21,76,60,45,55,48,43,94,67,36,30.24,30.11,8,1,10,0.00
2013-4-22,79,65,52,65,58,49,96,79,54,30.15,30.05,5,1,9,0.00
2013-4-23,80,68,59,66,63,58,99,85,61,30.13,30.04,6,1,10,0.00
2013-4-24,65,65,64,65,64,64,98,98,97,30.06,30.04,2,0,3,0.00
2013-4-25,78,64,55,63,56,49,98,75,48,30.30,30.16,5,1,8,0.00
2013-4-26,83,69,55,61,51,45,87,56,37,30.31,30.22,4,1,7,0.26
2013-4-27,83,71,59,71,65,58,98,82,53,30.23,30.05,7,1,9,0.00
2013-4-28,81,72,67,72,68,64,99,87,62,30.08,29.96,7,0,10,0.00
2013-4-29,85,72,65,70,66,63,97,83,50,30.00,29.89,4,0,5,0.02
2013-4-30,82,71,65,73,68,64,99,90,66,29.96,29.89,7,0,8,0.28
2013-5-1,74,69,63,72,68,62,99,97,91,29.94,29.86,10,1,11,2.53
2013-5-2,75,67,63,70,66,62,99,95,79,29.99,29.88,6,1,8,3.32
2013-5-3,75,64,48,68,62,48,99,93,77,29.97,29.81,8,1,13,0.38
2013-5-4,72,56,44,48,43,38,97,67,32,29.99,29.88,7,1,12,0.00
2013-5-5,68,59,49,57,48,43,94,69,44,30.01,29.86,13,1,16,0.00
2013-5-6,73,60,48,57,51,45,93,73,47,30.03,29.92,12,1,15,0.00
2013-5-7,79,66,54,62,58,52,97,79,52,30.05,29.97,6,0,10,0.00
2013-5-8,84,71,58,66,63,58,99,79,45,30.12,30.01,6,0,8,0.00
2013-5-9,85,73,61,70,64,60,99,77,48,30.15,30.06,7,1,10,0.00
2013-5-10,77,69,65,69,67,63,99,94,69,30.16,29.90,7,0,13,0.49
2013-5-11,78,68,62,71,66,62,99,94,77,30.07,29.95,5,0,7,0.40
2013-5-12,81,70,61,67,61,55,99,74,49,30.14,30.01,7,0,11,0.01
2013-5-13,81,66,51,56,49,41,86,58,29,30.29,30.13,7,1,11,0.00
2013-5-14,88,70,55,62,57,53,96,68,33,30.29,30.17,8,1,8,0.00
2013-5-15,87,73,59,64,60,53,98,67,36,30.23,30.05,7,1,9,0.00
2013-5-16,69,68,67,65,64,62,91,86,81,30.06,30.01,1,0,2,0.00
2013-5-24,90,82,68,70,64,58,73,55,45,30.17,30.09,5,1,7,0.00
2013-5-25,91,74,61,64,56,50,86,57,26,30.25,30.15,3,1,6,0.00
2013-5-26,90,70,62,72,63,56,97,83,38,30.22,30.13,7,0,9,0.02
2013-5-27,88,77,68,72,68,63,97,75,49,30.17,30.07,10,1,13,0.00
2013-5-28,89,76,63,74,69,62,99,82,53,30.10,30.04,6,1,11,0.00
2013-5-29,89,79,72,76,73,71,99,84,62,30.06,30.00,11,1,14,0.00
2013-5-30,87,80,75,75,74,72,95,82,63,30.07,29.99,10,2,15,0.00
2013-5-31,87,80,76,77,74,73,94,84,71,30.06,29.97,8,1,14,0.05
2013-6-1,88,79,76,79,76,74,97,90,73,30.02,29.94,6,1,9,0.30
2013-6-2,94,80,71,77,73,70,99,82,51,29.99,29.85,7,1,10,0.10
2013-6-3,88,78,70,79,75,70,99,90,67,29.93,29.84,4,0,6,0.02
2013-6-4,94,82,72,78,75,72,100,83,53,29.95,29.89,7,1,9,0.01
2013-6-5,78,77,76,75,75,74,95,93,91,29.94,29.90,2,0,3,0.00
2013-6-12,98,85,76,82,77,73,98,78,47,30.09,29.99,4,1,9,0.00
2013-6-13,97,87,77,79,76,72,95,72,47,30.04,29.86,6,1,10,2.04
2013-6-14,95,84,76,79,74,69,98,74,47,29.95,29.85,9,1,9,0.18
2013-6-15,76,75,74,69,68,68,83,80,78,29.95,29.93,2,0,2,0.00
2013-6-16,93,84,77,81,78,74,99,84,56,30.05,29.98,5,0,10,0.01
2013-6-17,94,83,76,79,77,74,98,83,54,30.02,29.94,7,1,13,0.00
2013-6-18,94,84,72,79,75,71,97,77,49,30.01,29.88,10,1,12,0.41
2013-6-19,88,79,72,78,74,71,99,85,62,30.04,29.93,4,0,5,0.01
2013-6-20,92,81,72,77,74,71,99,82,57,30.10,30.00,8,0,11,0.00
2013-6-26,80,79,78,77,77,76,93,91,90,30.02,30.00,0,0,1,0.00
2013-6-27,96,86,76,80,78,74,98,79,50,30.02,29.91,4,1,9,0.00
2013-6-28,97,87,79,82,79,77,97,79,54,29.93,29.75,8,1,12,2.20
2013-6-29,97,84,73,79,75,71,98,77,48,29.80,29.67,7,1,9,0.29
2013-6-30,94,82,72,77,71,65,99,73,40,29.78,29.70,7,0,7,0.00
2013-7-1,92,81,71,71,68,63,91,68,41,29.90,29.77,7,0,10,0.00
2013-7-2,94,81,70,72,70,67,89,71,45,30.00,29.89,4,0,6,0.00
2013-7-3,89,79,73,76,74,71,99,85,62,30.03,29.93,7,1,9,0.38
2013-7-4,88,78,71,78,75,70,99,91,70,30.01,29.91,5,0,8,0.85
2013-7-5,77,74,72,76,74,72,99,97,94,30.09,29.98,5,0,7,0.33
2013-7-6,78,74,72,76,73,71,99,97,89,30.06,29.99,4,0,4,2.51
2013-7-7,79,76,73,78,75,72,100,99,93,30.12,30.02,4,0,11,1.12
2013-7-8,88,77,73,80,76,73,100,94,75,30.18,30.09,6,0,9,0.01
2013-7-9,94,82,71,80,76,71,100,83,52,30.19,30.08,5,0,8,0.01
2013-7-10,91,81,75,80,76,74,98,88,63,30.12,29.97,6,0,9,0.00
2013-7-11,85,77,74,79,76,73,99,96,80,30.02,29.88,4,1,9,1.05
2013-7-12,94,77,71,81,74,70,99,89,59,29.93,29.84,4,0,6,1.11
2013-7-13,92,77,70,80,74,70,99,89,65,29.98,29.87,6,0,9,0.01
2013-7-14,94,80,70,77,72,69,98,80,53,30.01,29.92,5,1,8,0.00
2013-7-15,88,79,74,78,76,74,99,89,70,30.13,30.02,4,1,8,0.00
2013-7-16,90,81,74,79,75,72,97,82,65,30.18,30.09,7,2,11,0.00
2013-7-21,91,79,74,79,76,73,98,89,63,30.06,29.98,6,1,12,0.22
2013-7-22,87,77,72,81,75,72,99,94,71,30.08,30.00,7,1,15,1.05
2013-7-23,93,82,72,80,77,72,100,86,62,30.05,29.92,9,1,12,0.01
2013-7-24,92,82,73,80,77,72,97,85,65,29.96,29.88,8,1,11,0.09
2013-7-25,93,81,72,79,75,72,99,83,61,30.01,29.87,6,0,9,0.05
2013-7-26,96,83,72,78,74,70,99,76,48,30.06,29.96,5,0,8,0.00
2013-7-27,84,78,72,78,75,71,99,92,80,29.99,29.88,8,0,8,1.09
2013-7-28,92,80,71,80,76,71,100,90,65,30.00,29.86,5,0,7,0.23
2013-7-29,93,82,75,81,78,74,99,89,64,30.12,29.98,10,0,10,0.01
2013-7-30,93,83,75,80,78,75,99,86,65,30.16,30.08,5,0,7,0.00
2013-8-1,96,81,74,80,76,72,99,85,56,30.00,29.90,7,1,14,1.45
2013-8-2,96,83,72,80,76,72,100,81,48,30.02,29.92,2,0,5,0.01
2013-8-3,96,81,76,80,77,72,99,89,47,30.07,29.98,5,0,6,0.00
2013-8-4,98,86,78,81,78,76,96,78,51,30.08,29.97,6,0,7,0.00
2013-8-5,94,82,75,83,77,74,99,87,62,30.04,29.95,6,0,11,1.23
2013-8-24,83,77,73,77,74,72,99,91,78,30.13,30.00,2,0,9,0.01
2013-8-25,87,78,72,77,74,72,99,89,69,30.20,30.10,4,1,11,0.01
2013-8-26,90,81,73,74,70,66,97,72,49,30.22,30.10,5,0,8,0.00
2013-8-27,90,78,66,71,67,64,95,74,46,30.14,30.03,3,0,8,0.00
2013-8-28,94,79,67,73,70,66,96,76,46,30.09,30.00,5,0,6,0.00
2013-8-29,94,81,69,75,71,68,97,73,45,30.08,29.97,5,0,7,0.00
2013-8-30,95,83,73,76,73,71,93,74,51,30.03,29.91,5,0,6,0.00
2013-8-31,94,82,75,83,75,71,95,80,58,29.97,29.86,5,0,7,0.23
2013-9-1,91,79,75,82,76,73,96,90,67,29.95,29.87,4,0,8,0.67
2013-9-2,94,84,76,81,78,76,99,84,61,29.99,29.88,4,1,8,0.00
2013-9-3,96,81,72,82,76,71,99,88,54,29.99,29.86,8,0,12,3.09
2013-9-4,92,78,71,81,76,71,100,92,64,30.08,29.96,4,0,6,2.48
2013-9-5,94,80,73,81,76,73,100,87,55,30.13,30.02,5,0,8,0.04
2013-9-6,93,81,73,78,74,71,99,81,52,30.11,29.99,4,0,6,0.00
2013-9-7,95,81,70,75,72,69,98,77,46,30.06,29.97,3,0,6,0.00
2013-9-8,96,82,71,76,73,70,98,79,47,30.00,29.93,4,0,6,0.00
2013-9-9,95,82,72,78,74,71,98,79,49,30.05,29.97,6,0,7,0.00
2013-9-10,94,81,74,77,74,72,96,81,55,30.13,30.03,5,0,9,0.00
2013-9-11,75,74,74,74,73,72,97,96,96,30.11,30.08,1,0,2,0.00
2013-9-15,92,77,69,75,67,62,87,72,54,30.07,29.98,3,0,5,0.00
2013-9-17,79,78,77,75,74,74,90,89,87,30.05,30.04,2,0,5,0.00
2013-9-18,86,79,74,77,74,72,93,84,68,30.09,30.01,3,0,8,0.00
2013-9-19,91,81,74,76,73,69,93,78,56,30.08,29.99,4,1,8,0.05
2013-9-20,90,80,72,79,76,72,98,87,67,30.02,29.85,7,0,9,0.00
2013-9-21,80,77,71,78,75,70,98,95,88,29.84,29.72,6,0,8,0.35
2013-9-22,82,73,68,72,69,65,99,87,71,29.81,29.74,8,1,8,0.10
2013-9-23,92,81,67,78,74,64,95,78,61,29.89,29.80,5,0,6,0.00
2013-9-24,87,77,70,80,75,70,99,94,76,29.90,29.77,6,0,8,1.49
2013-9-25,90,77,71,76,73,71,99,87,57,29.83,29.76,7,0,7,0.01
2013-9-26,92,79,70,77,72,68,99,81,47,29.92,29.81,3,0,5,0.00
2013-9-30,83,76,70,72,70,69,95,82,65,29.99,29.93,3,0,5,0.00
2013-10-1,90,77,68,74,71,67,98,82,56,30.06,29.98,3,0,6,0.00
2013-10-2,82,73,72,77,72,70,98,95,80,30.08,30.00,3,0,7,0.24
2013-10-3,88,78,72,78,75,71,99,90,70,30.07,29.98,6,0,8,0.39
2013-10-4,89,78,72,79,75,72,99,90,66,30.06,29.99,8,0,8,0.04
2013-10-5,88,79,74,78,76,73,99,89,68,30.04,29.94,7,0,9,0.00
2013-10-6,79,74,67,76,73,66,99,97,91,29.94,29.79,5,0,8,2.45
2013-10-7,77,69,62,66,58,53,96,70,45,29.97,29.87,9,1,11,0.00
2013-10-29,69,65,63,65,63,62,96,93,86,30.24,30.22,0,0,1,0.00
2013-10-30,80,70,60,72,66,59,98,89,68,30.23,30.08,4,0,9,0.01
2013-10-31,81,75,70,73,71,68,96,86,73,30.09,29.84,7,1,14,0.13
2013-11-20,57,56,55,55,54,53,96,93,91,30.17,30.15,1,0,2,0.00
2013-11-21,72,62,55,64,58,53,94,89,75,30.26,30.16,3,1,6,0.00
2013-11-22,79,68,61,72,65,60,97,90,78,30.23,30.14,3,0,6,0.03
2013-11-23,67,59,49,66,57,42,97,91,76,30.29,30.16,10,1,12,0.00
2013-11-24,54,46,40,42,31,27,76,58,38,30.39,30.29,13,2,15,0.00
2013-11-25,58,50,39,57,43,29,96,78,64,30.32,29.90,8,2,10,0.14
2013-11-26,66,54,45,66,53,44,98,96,92,29.90,29.72,9,2,12,1.63
2013-11-27,48,40,31,42,32,26,97,76,47,30.40,29.93,5,1,14,0.06
2013-11-28,49,33,26,33,26,23,89,76,40,30.49,30.37,3,0,7,0.00
2013-11-29,60,42,29,34,30,25,92,67,28,30.55,30.43,5,0,8,0.00
2013-11-30,68,48,33,50,39,30,96,76,46,30.46,30.27,4,0,7,0.00
2013-12-1,69,52,40,53,46,39,98,84,45,30.30,30.02,5,0,6,0.00
2013-12-2,73,60,48,60,54,47,98,82,53,30.02,29.81,6,0,8,0.00
2013-12-3,75,67,59,68,64,58,98,92,78,29.87,29.77,8,1,13,0.09
2013-12-4,78,72,66,73,70,65,98,94,83,29.98,29.85,7,1,10,0.17
2013-12-11,62,49,36,47,39,33,90,71,46,30.42,30.31,5,0,8,0.00
2013-12-12,56,47,37,40,33,28,81,59,35,30.51,30.39,5,1,13,1.22
2013-12-13,59,47,32,49,39,27,81,72,59,30.39,30.03,4,0,5,0.00
2013-12-14,75,63,52,68,60,47,96,88,77,30.03,29.82,8,1,14,0.09
2013-12-15,51,45,39,49,39,36,91,80,68,30.27,30.00,9,1,12,0.00
2013-12-17,67,54,42,43,40,36,89,63,36,30.31,30.24,5,0,10,0.00
2013-12-18,66,50,40,43,40,38,94,73,36,30.39,30.26,6,1,9,0.00
2013-12-19,70,47,39,60,44,38,96,92,69,30.26,30.09,7,0,11,0.00
2013-12-20,75,66,58,69,64,57,97,93,82,30.13,30.00,8,1,11,0.00
2013-12-21,76,73,70,73,71,68,97,94,90,30.00,29.85,11,2,13,0.04
2013-12-22,75,61,54,72,60,53,97,95,88,30.14,29.84,11,1,15,3.95
2013-12-23,55,47,38,54,44,33,97,90,81,30.43,30.10,7,1,11,0.02
2013-12-24,52,39,31,35,31,27,91,74,47,30.52,30.40,9,1,11,0.00
2013-12-25,48,38,27,36,30,25,92,73,50,30.42,30.32,7,0,11,0.00
2013-12-26,54,44,36,40,36,31,84,73,53,30.39,30.29,6,0,9,0.00
2013-12-27,60,50,41,40,37,35,80,61,42,30.42,30.29,9,1,11,0.00
2013-12-28,53,47,45,46,45,40,97,93,62,30.29,29.95,8,1,11,3.60
2013-12-29,56,48,41,50,46,40,97,93,78,30.14,29.93,6,0,7,0.00
2013-12-30,60,50,41,52,47,40,97,90,71,30.31,30.11,2,0,3,0.01
2013-12-31,50,45,43,48,42,39,94,89,83,30.43,30.29,6,1,8,0.04
2014-1-1,58,49,43,56,48,41,96,94,90,30.35,30.06,3,0,4,0.16
2014-1-2,59,52,38,57,48,30,96,85,63,30.28,29.92,11,1,13,0.63